Time;durP1;ratioP1;P1;durP2;ratioP2;P2;SDS_P1;SDS_P2;PMS_P1;PMS_P2;Temp;Humidity;BMP_temperature;BMP_pressure;BME280_temperature;BME280_humidity;BME280_pressure;Samples;Min_cycle;Max_cycle;Signal;HPM_P1;HPM_P2
2022/08/03 05:01:45;;;;;;;5.28;4.15;;;19.40;99.90;;;;;;5688601;23;19919;-75
2022/08/03 05:04:11;;;;;;;6.80;4.93;;;19.50;99.90;;;;;;4892463;29;20060;-77
2022/08/03 05:06:37;;;;;;;5.40;3.92;;;19.50;99.90;;;;;;4892191;29;20206;-75
2022/08/03 05:09:03;;;;;;;7.47;4.35;;;19.60;99.90;;;;;;4892342;29;20040;-76
2022/08/03 05:11:29;;;;;;;14.05;5.70;;;19.70;99.90;;;;;;4890436;29;20041;-78
2022/08/03 05:13:54;;;;;;;7.50;4.43;;;19.80;99.90;;;;;;4890313;29;20029;-77
2022/08/03 05:16:20;;;;;;;6.78;4.00;;;19.90;99.90;;;;;;4873184;29;20289;-77
2022/08/03 05:18:46;;;;;;;7.53;4.53;;;19.90;99.90;;;;;;4898119;29;20024;-77
2022/08/03 05:21:13;;;;;;;9.05;3.88;;;20.00;99.90;;;;;;4908612;29;20041;-77
2022/08/03 05:23:40;;;;;;;6.35;4.22;;;20.00;99.90;;;;;;4908297;29;20382;-77
2022/08/03 05:26:10;;;;;;;6.93;4.03;;;20.00;99.90;;;;;;4908090;29;20033;-79
2022/08/03 05:28:37;;;;;;;6.20;3.97;;;20.10;99.90;;;;;;4901140;29;20031;-76
2022/08/03 05:31:03;;;;;;;5.95;3.72;;;20.20;99.90;;;;;;4898796;29;20036;-77
2022/08/03 05:33:31;;;;;;;6.63;3.92;;;20.30;99.90;;;;;;4881924;29;20356;-77
2022/08/03 05:35:58;;;;;;;5.82;3.90;;;20.30;99.90;;;;;;4889385;29;20048;-77
2022/08/03 05:38:25;;;;;;;4.75;3.80;;;20.40;99.90;;;;;;4908307;29;20039;-78
2022/08/03 05:40:50;;;;;;;7.63;3.88;;;20.50;99.90;;;;;;4908484;29;20041;-77
2022/08/03 05:43:18;;;;;;;6.55;4.20;;;20.50;99.90;;;;;;4890537;29;20032;-78
2022/08/03 05:45:43;;;;;;;6.25;3.88;;;20.60;99.90;;;;;;4899699;29;20377;-77
2022/08/03 05:48:09;;;;;;;7.38;4.05;;;20.60;99.90;;;;;;4905020;29;20047;-80
2022/08/03 05:50:35;;;;;;;6.22;4.13;;;20.70;99.90;;;;;;4891147;29;20041;-79
2022/08/03 05:53:01;;;;;;;7.65;4.55;;;20.80;99.90;;;;;;4899658;29;20047;-77
2022/08/03 05:55:27;;;;;;;6.90;4.20;;;20.90;99.90;;;;;;4889500;29;20036;-78
2022/08/03 05:57:53;;;;;;;7.55;4.43;;;20.90;99.90;;;;;;4902140;29;20035;-79
2022/08/03 06:00:19;;;;;;;11.77;4.43;;;20.90;99.90;;;;;;4891699;29;20222;-76
2022/08/03 06:02:45;;;;;;;8.68;4.35;;;20.90;99.90;;;;;;4871960;29;20053;-76
2022/08/03 06:05:11;;;;;;;12.68;4.53;;;21.00;99.90;;;;;;4889184;29;20234;-77
2022/08/03 06:07:37;;;;;;;9.35;3.90;;;21.10;99.90;;;;;;4885610;29;20037;-77
2022/08/03 06:10:04;;;;;;;9.40;4.40;;;21.30;99.90;;;;;;4889194;29;20060;-77
2022/08/03 06:12:30;;;;;;;6.22;4.30;;;21.50;99.90;;;;;;4889462;29;20036;-77
2022/08/03 06:14:56;;;;;;;9.60;4.30;;;21.50;99.90;;;;;;4872277;29;20061;-76
2022/08/03 06:17:21;;;;;;;8.45;4.40;;;21.70;99.90;;;;;;4887897;29;20061;-75
2022/08/03 06:19:47;;;;;;;8.32;4.13;;;21.70;99.80;;;;;;4892179;29;20319;-76
2022/08/03 06:22:13;;;;;;;6.90;4.00;;;21.70;99.70;;;;;;4872697;29;20033;-76
2022/08/03 06:24:39;;;;;;;6.93;3.90;;;21.80;99.70;;;;;;4872172;29;20084;-77
2022/08/03 06:27:05;;;;;;;6.03;3.92;;;21.90;99.30;;;;;;4903262;29;20036;-77
2022/08/03 06:29:31;;;;;;;6.32;4.07;;;22.00;99.10;;;;;;4903156;29;20020;-76
2022/08/03 06:31:59;;;;;;;9.57;3.85;;;22.20;98.60;;;;;;4906435;29;20104;-77
2022/08/03 06:34:25;;;;;;;9.88;4.10;;;22.40;98.00;;;;;;4907696;29;20040;-78
2022/08/03 06:36:52;;;;;;;6.70;3.75;;;22.50;97.30;;;;;;4882193;29;20299;-78
2022/08/03 06:39:23;;;;;;;7.25;3.80;;;22.60;97.00;;;;;;4900433;29;20226;-78
2022/08/03 06:41:49;;;;;;;5.80;4.05;;;22.70;96.70;;;;;;4907355;29;20348;-77
2022/08/03 06:44:17;;;;;;;7.68;4.00;;;22.80;96.40;;;;;;4890526;29;20039;-77
2022/08/03 06:46:58;;;;;;;6.60;4.07;;;22.90;96.10;;;;;;4890054;29;20048;-79
2022/08/03 06:49:26;;;;;;;6.50;4.07;;;23.10;95.80;;;;;;4859503;29;20104;-77
2022/08/03 06:52:01;;;;;;;5.38;3.58;;;23.10;95.40;;;;;;4872429;29;20028;-78
2022/08/03 06:54:27;;;;;;;8.27;4.07;;;23.20;95.00;;;;;;4871902;29;20059;-79
2022/08/03 06:56:53;;;;;;;9.43;3.83;;;23.40;94.70;;;;;;4887368;29;20036;-78
2022/08/03 06:59:19;;;;;;;5.55;3.53;;;23.60;94.40;;;;;;4888618;29;20306;-78
2022/08/03 07:01:51;;;;;;;5.90;3.83;;;23.60;94.20;;;;;;4901540;29;20065;-79
2022/08/03 07:04:19;;;;;;;10.02;4.32;;;23.80;93.70;;;;;;4906045;29;20226;-79
2022/08/03 07:06:45;;;;;;;;;;;23.70;93.40;;;;;;4906087;29;20044;-78
2022/08/03 07:09:14;;;;;;;5.75;3.33;;;23.90;93.40;;;;;;4887033;29;20184;-79
2022/08/03 07:12:15;;;;;;;6.53;3.47;;;24.00;93.30;;;;;;4889128;29;20370;-81
2022/08/03 07:14:40;;;;;;;7.00;3.60;;;24.10;92.70;;;;;;4874475;29;20100;-78
2022/08/03 07:17:09;;;;;;;6.82;3.47;;;24.20;92.50;;;;;;4889403;29;20043;-74
2022/08/03 07:19:35;;;;;;;;;;;24.30;92.10;;;;;;4907071;29;20071;-76
2022/08/03 07:22:02;;;;;;;5.88;3.92;;;24.50;92.00;;;;;;4906566;29;20193;-76
2022/08/03 07:24:28;;;;;;;6.43;3.13;;;24.60;91.70;;;;;;4896059;29;20029;-77
2022/08/03 07:26:56;;;;;;;6.88;3.97;;;24.60;91.50;;;;;;4886996;29;20037;-75
2022/08/03 07:29:22;;;;;;;5.93;3.40;;;24.60;91.60;;;;;;4887484;29;20088;-76
2022/08/03 07:31:48;;;;;;;6.20;3.35;;;24.70;91.30;;;;;;4842006;29;20227;-77
2022/08/03 07:34:14;;;;;;;6.75;3.72;;;24.90;91.00;;;;;;4867308;29;20037;-76
2022/08/03 07:36:40;;;;;;;5.75;3.22;;;25.00;90.90;;;;;;4886491;29;20029;-77
2022/08/03 07:39:06;;;;;;;6.05;3.33;;;25.20;90.70;;;;;;4886998;29;20040;-75
2022/08/03 07:41:32;;;;;;;6.13;3.58;;;25.30;90.30;;;;;;4878036;29;20025;-76
2022/08/03 07:43:58;;;;;;;7.82;3.80;;;25.50;90.00;;;;;;4867441;29;20083;-76
2022/08/03 07:46:23;;;;;;;5.95;3.42;;;25.60;89.60;;;;;;4885581;29;20056;-78
2022/08/03 07:48:49;;;;;;;5.05;3.13;;;25.70;89.30;;;;;;4885855;29;20025;-76
2022/08/03 07:51:15;;;;;;;6.68;3.22;;;25.90;88.70;;;;;;4899868;29;20123;-77
2022/08/03 07:53:41;;;;;;;7.00;2.95;;;26.10;87.80;;;;;;4904787;29;20251;-75
2022/08/03 07:56:06;;;;;;;7.00;3.20;;;26.10;87.60;;;;;;4905500;29;20350;-76
2022/08/03 07:58:34;;;;;;;6.90;3.30;;;26.10;87.20;;;;;;4905063;29;20076;-77
2022/08/03 08:01:01;;;;;;;7.22;3.33;;;26.20;87.10;;;;;;4904243;29;20039;-78
2022/08/03 08:03:27;;;;;;;6.72;3.25;;;26.40;86.10;;;;;;4904141;29;20088;-81
2022/08/03 08:05:53;;;;;;;6.90;2.97;;;26.50;85.10;;;;;;4871740;29;20105;-76
2022/08/03 08:08:19;;;;;;;7.00;2.70;;;26.60;84.70;;;;;;4904934;29;20096;-76
2022/08/03 08:10:46;;;;;;;7.28;3.03;;;26.80;84.50;;;;;;4904451;29;20092;-76
2022/08/03 08:13:12;;;;;;;5.35;2.70;;;26.90;84.00;;;;;;4905112;29;20043;-75
2022/08/03 08:15:38;;;;;;;5.20;3.00;;;27.00;83.10;;;;;;4872034;29;20044;-77
2022/08/03 08:18:03;;;;;;;6.30;2.83;;;27.10;82.50;;;;;;4904818;29;20062;-77
2022/08/03 08:20:31;;;;;;;5.85;2.70;;;27.20;82.70;;;;;;4905050;29;20057;-76
2022/08/03 08:23:02;;;;;;;6.20;2.38;;;27.40;82.20;;;;;;4907544;29;20040;-76
2022/08/03 08:25:30;;;;;;;6.63;2.90;;;27.40;81.30;;;;;;4908423;29;20032;-76
2022/08/03 08:27:56;;;;;;;4.88;2.60;;;27.50;80.20;;;;;;4907861;29;20037;-76
2022/08/03 08:30:23;;;;;;;8.32;3.95;;;27.50;80.60;;;;;;4905290;29;20049;-75
2022/08/03 08:32:49;;;;;;;5.32;2.75;;;27.70;80.10;;;;;;4889110;29;20101;-76
2022/08/03 08:35:16;;;;;;;5.63;3.72;;;27.80;79.70;;;;;;4889687;29;20036;-75
2022/08/03 08:37:42;;;;;;;4.22;2.22;;;27.80;79.00;;;;;;4872520;29;20077;-76
2022/08/03 08:40:09;;;;;;;5.50;2.20;;;27.90;78.60;;;;;;4889566;29;20366;-77
2022/08/03 08:42:40;;;;;;;3.83;1.80;;;27.90;78.40;;;;;;4889782;29;20105;-77
2022/08/03 08:45:07;;;;;;;4.15;1.90;;;28.00;76.60;;;;;;4888574;29;20029;-75
2022/08/03 08:47:36;;;;;;;3.47;1.93;;;28.10;76.30;;;;;;4854534;29;20249;-76
2022/08/03 08:50:03;;;;;;;3.45;1.77;;;28.20;76.00;;;;;;4870780;29;20548;-75
2022/08/03 08:52:31;;;;;;;4.13;1.38;;;28.30;75.10;;;;;;4870919;29;20037;-77
2022/08/03 08:55:06;;;;;;;4.53;1.33;;;28.50;73.60;;;;;;4838629;29;20264;-79
2022/08/03 08:57:51;;;;;;;4.43;1.90;;;28.70;72.90;;;;;;4854448;29;20033;-76
2022/08/03 09:00:17;;;;;;;3.03;1.40;;;28.70;72.60;;;;;;4838086;29;20030;-77
2022/08/03 09:02:45;;;;;;;4.25;1.45;;;28.70;71.90;;;;;;4869753;29;20373;-77
2022/08/03 09:05:16;;;;;;;3.10;1.70;;;28.80;72.30;;;;;;4848467;29;20037;-77
2022/08/03 09:07:43;;;;;;;4.13;1.27;;;28.80;71.90;;;;;;4888920;29;20033;-77
2022/08/03 09:10:11;;;;;;;2.65;1.35;;;28.90;72.40;;;;;;4889198;29;20108;-77
2022/08/03 09:12:49;;;;;;;3.78;1.73;;;29.10;71.60;;;;;;4889108;29;20097;-77
2022/08/03 09:15:15;;;;;;;3.13;1.08;;;29.20;71.00;;;;;;4871675;29;20028;-76
2022/08/03 09:17:41;;;;;;;3.17;1.27;;;29.20;70.70;;;;;;4888894;29;20029;-76
2022/08/03 09:20:08;;;;;;;2.53;1.30;;;29.30;70.50;;;;;;4889007;29;20044;-76
2022/08/03 09:22:34;;;;;;;4.13;1.42;;;29.30;69.60;;;;;;4871616;29;20386;-79
2022/08/03 09:25:06;;;;;;;4.10;1.85;;;29.30;69.40;;;;;;4856846;29;20324;-78
2022/08/03 09:27:44;;;;;;;2.75;1.15;;;29.40;69.70;;;;;;4856600;29;20314;-79
2022/08/03 09:30:15;;;;;;;3.47;1.30;;;29.40;68.20;;;;;;4871781;29;20044;-78
2022/08/03 09:32:45;;;;;;;3.75;1.50;;;29.40;68.10;;;;;;4854901;29;20100;-78
2022/08/03 09:35:41;;;;;;;3.70;1.30;;;29.40;68.60;;;;;;4871809;29;20240;-81
2022/08/03 09:38:36;;;;;;;5.40;1.70;;;29.50;68.70;;;;;;4866898;29;20289;-78
2022/08/03 09:41:21;;;;;;;4.38;1.33;;;29.60;68.40;;;;;;4856779;29;20089;-80
2022/08/03 09:44:17;;;;;;;3.80;1.30;;;29.80;67.90;;;;;;4888144;29;20037;-79
2022/08/03 09:47:01;;;;;;;2.38;1.00;;;29.90;66.60;;;;;;4829721;29;20126;-79
2022/08/03 09:52:33;;;;;;;3.35;1.10;;;30.30;64.80;;;;;;4887850;29;20033;-78
2022/08/03 09:55:01;;;;;;;4.25;0.90;;;30.30;61.80;;;;;;4887543;29;20049;-76
2022/08/03 09:57:27;;;;;;;;;;;30.30;62.20;;;;;;4888764;29;20037;-76
2022/08/03 10:00:03;;;;;;;2.75;1.05;;;30.40;63.30;;;;;;4887675;29;19955;-79
2022/08/03 10:03:03;;;;;;;3.28;1.40;;;30.50;60.60;;;;;;4881305;29;20144;-73
2022/08/03 10:05:32;;;;;;;2.55;1.42;;;30.40;61.00;;;;;;4894037;29;20097;-72
2022/08/03 10:08:16;;;;;;;3.90;1.25;;;30.50;61.90;;;;;;4887540;29;20032;-73
2022/08/03 10:10:49;;;;;;;3.55;0.80;;;30.70;61.70;;;;;;4887391;29;20057;-73
2022/08/03 10:13:23;;;;;;;2.25;0.98;;;30.70;60.70;;;;;;4892342;29;20040;-74
2022/08/03 10:15:58;;;;;;;2.72;1.00;;;30.60;60.90;;;;;;4885742;29;20047;-73
2022/08/03 10:18:33;;;;;;;2.45;1.20;;;30.70;61.80;;;;;;4887637;29;20037;-73
2022/08/03 10:21:20;;;;;;;3.15;1.00;;;30.70;60.80;;;;;;4887166;29;20141;-72
2022/08/03 10:23:52;;;;;;;2.88;1.08;;;30.70;61.50;;;;;;4887131;29;20067;-73
2022/08/03 10:26:24;;;;;;;3.70;1.25;;;30.80;61.10;;;;;;4887670;29;20100;-73
2022/08/03 10:28:58;;;;;;;3.60;1.30;;;30.90;60.90;;;;;;4870132;29;20037;-72
2022/08/03 10:31:59;;;;;;;1.80;0.90;;;31.10;61.00;;;;;;4887497;29;20395;-73
2022/08/03 10:34:48;;;;;;;4.60;1.00;;;31.20;60.00;;;;;;4868862;29;20061;-72
2022/08/03 10:37:17;;;;;;;2.70;0.93;;;31.10;60.70;;;;;;4869111;29;20089;-72
2022/08/03 10:39:56;;;;;;;2.10;0.80;;;31.20;59.80;;;;;;4852976;29;20097;-72
2022/08/03 10:42:30;;;;;;;2.00;1.20;;;31.20;59.00;;;;;;4855336;29;20029;-72
2022/08/03 10:45:08;;;;;;;4.20;1.52;;;31.20;59.10;;;;;;4886693;29;20029;-72
2022/08/03 10:47:49;;;;;;;2.80;1.38;;;31.40;59.30;;;;;;4870790;29;20112;-71
2022/08/03 10:50:20;;;;;;;2.33;1.13;;;31.50;59.10;;;;;;4867956;29;20081;-71
2022/08/03 10:53:17;;;;;;;4.68;1.10;;;31.60;58.40;;;;;;4876466;29;20045;-73
2022/08/03 10:59:15;;;;;;;3.05;1.20;;;31.80;58.90;;;;;;4740574;30;20076;-71
2022/08/03 11:01:52;;;;;;;2.03;1.00;;;31.90;58.50;;;;;;4798028;29;20046;-73
2022/08/03 11:04:20;;;;;;;3.03;1.00;;;32.00;58.70;;;;;;4868579;29;20291;-73
2022/08/03 11:07:06;;;;;;;4.07;1.02;;;32.10;59.00;;;;;;4868172;29;20534;-73
2022/08/03 11:10:00;;;;;;;2.17;0.93;;;32.20;58.80;;;;;;4847725;29;20050;-72
2022/08/03 11:12:42;;;;;;;1.77;0.88;;;32.30;57.70;;;;;;4849676;29;20041;-73
2022/08/03 11:15:08;;;;;;;3.13;1.05;;;32.30;57.50;;;;;;4849225;29;20432;-78
2022/08/03 11:17:37;;;;;;;1.60;0.77;;;32.50;57.50;;;;;;4833097;29;20060;-78
2022/08/03 11:20:05;;;;;;;3.50;1.00;;;32.60;57.60;;;;;;4849488;29;20229;-77
2022/08/03 11:23:06;;;;;;;2.10;1.10;;;32.80;57.20;;;;;;4834532;29;20113;-78
2022/08/03 11:26:07;;;;;;;2.40;1.20;;;33.00;57.00;;;;;;4803462;29;20049;-80
2022/08/03 11:28:33;;;;;;;1.60;0.95;;;33.20;56.90;;;;;;4835668;29;20295;-79
2022/08/03 11:31:21;;;;;;;3.35;0.90;;;33.50;57.00;;;;;;4841062;29;20078;-80
2022/08/03 11:34:07;;;;;;;1.92;1.00;;;33.70;56.30;;;;;;4870349;29;20342;-79
2022/08/03 11:37:11;;;;;;;2.63;1.10;;;34.10;55.70;;;;;;4873123;29;20111;-80
2022/08/03 11:39:45;;;;;;;3.25;1.05;;;34.50;55.00;;;;;;4888442;29;20062;-79
2022/08/03 11:42:35;;;;;;;4.07;1.35;;;35.30;54.40;;;;;;4887847;29;20028;-78
2022/08/03 11:48:12;;;;;;;3.13;1.05;;;36.60;53.10;;;;;;4849207;29;20041;-79
2022/08/03 11:51:03;;;;;;;2.10;0.75;;;37.70;52.00;;;;;;4872101;29;20327;-79
2022/08/03 11:53:30;;;;;;;2.92;0.93;;;38.50;51.20;;;;;;4855394;29;20052;-78
2022/08/03 11:56:02;;;;;;;2.13;1.08;;;39.20;49.80;;;;;;4887915;29;20283;-78
2022/08/03 11:58:29;;;;;;;1.98;0.80;;;39.30;49.40;;;;;;4875438;29;20318;-77
2022/08/03 12:01:38;;;;;;;2.00;0.88;;;39.70;48.80;;;;;;4881812;29;20055;-78
2022/08/03 12:04:05;;;;;;;1.50;0.85;;;39.70;49.10;;;;;;4889459;29;20330;-77
2022/08/03 12:06:53;;;;;;;1.95;0.75;;;40.70;48.70;;;;;;4929398;29;20326;-77
2022/08/03 12:09:19;;;;;;;1.65;0.60;;;40.90;47.40;;;;;;4926411;29;20061;-77
2022/08/03 12:11:49;;;;;;;1.38;0.70;;;41.50;46.80;;;;;;4902339;29;20076;-76
2022/08/03 12:14:16;;;;;;;1.52;0.70;;;41.70;46.00;;;;;;4929199;29;20043;-78
2022/08/03 12:17:00;;;;;;;1.10;0.68;;;42.70;45.80;;;;;;4928907;29;20040;-80
2022/08/03 12:19:26;;;;;;;1.27;0.70;;;43.70;45.50;;;;;;4912279;29;20028;-79
2022/08/03 12:21:52;;;;;;;1.95;0.93;;;44.10;44.90;;;;;;4896237;29;20047;-80
2022/08/03 12:24:17;;;;;;;4.15;2.88;;;44.10;45.10;;;;;;4929240;29;20333;-78
2022/08/03 12:26:44;;;;;;;2.92;0.98;;;44.50;44.90;;;;;;4912235;29;20198;-81
2022/08/03 12:29:20;;;;;;;3.88;0.90;;;44.60;44.50;;;;;;4911651;29;20072;-78
2022/08/03 12:32:06;;;;;;;2.50;1.02;;;44.80;44.30;;;;;;4902471;29;20063;-78
2022/08/03 12:35:20;;;;;;;2.13;0.80;;;44.60;43.70;;;;;;4891225;29;20037;-80
2022/08/03 12:37:47;;;;;;;1.25;0.70;;;45.60;43.30;;;;;;4890847;29;20068;-78
2022/08/03 12:40:14;;;;;;;1.63;0.60;;;46.40;42.90;;;;;;4873866;29;20049;-79
2022/08/03 12:42:41;;;;;;;1.42;0.70;;;46.00;42.50;;;;;;4891022;29;20047;-78
2022/08/03 12:45:37;;;;;;;1.60;0.70;;;45.70;42.70;;;;;;4889734;29;20037;-79
2022/08/03 12:48:07;;;;;;;;;;;47.10;42.10;;;;;;4890808;29;20044;-80
2022/08/03 12:50:36;;;;;;;0.95;0.60;;;47.70;41.20;;;;;;4874844;29;19930;-79
2022/08/03 12:53:04;;;;;;;1.98;0.80;;;49.30;40.80;;;;;;4874185;29;20112;-79
2022/08/03 12:55:37;;;;;;;1.85;0.80;;;49.80;40.70;;;;;;4891117;29;20093;-78
2022/08/03 12:58:05;;;;;;;1.30;0.70;;;50.30;40.20;;;;;;4890853;29;20239;-79
2022/08/03 13:00:32;;;;;;;2.25;0.80;;;50.60;40.10;;;;;;4877029;29;20266;-78
2022/08/03 13:03:06;;;;;;;;;;;50.90;39.70;;;;;;4877019;29;20052;-78
2022/08/03 13:05:44;;;;;;;2.30;0.80;;;50.20;40.00;;;;;;4909288;29;19907;-78
2022/08/03 13:08:31;;;;;;;1.40;0.60;;;50.30;40.10;;;;;;4908429;29;20041;-79
2022/08/03 13:10:57;;;;;;;2.33;0.80;;;49.60;40.10;;;;;;4902670;29;20020;-79
2022/08/03 13:13:38;;;;;;;1.30;0.83;;;49.60;40.30;;;;;;4909133;29;20237;-78
2022/08/03 13:16:04;;;;;;;2.85;0.80;;;49.00;40.20;;;;;;4907801;29;20049;-79
2022/08/03 13:18:30;;;;;;;2.73;0.70;;;48.70;40.30;;;;;;4909003;29;20035;-78
2022/08/03 13:20:56;;;;;;;0.77;0.53;;;48.90;40.10;;;;;;4891828;29;20251;-79
2022/08/03 13:23:21;;;;;;;2.13;0.70;;;48.80;40.00;;;;;;4909491;29;20025;-78
2022/08/03 13:25:50;;;;;;;2.03;0.70;;;48.00;40.40;;;;;;4892627;29;20035;-79
2022/08/03 13:28:16;;;;;;;1.30;0.80;;;47.60;40.50;;;;;;4908622;29;20042;-78
2022/08/03 13:30:42;;;;;;;4.50;0.80;;;47.80;40.40;;;;;;4906948;29;20040;-79
2022/08/03 13:33:11;;;;;;;1.35;0.60;;;48.70;40.70;;;;;;4860574;29;20033;-80
2022/08/03 13:36:01;;;;;;;2.15;0.80;;;50.00;40.40;;;;;;4891390;29;20037;-78
2022/08/03 13:38:42;;;;;;;2.88;0.90;;;50.70;39.60;;;;;;4892882;29;20041;-79
2022/08/03 13:41:08;;;;;;;2.40;0.90;;;50.60;39.50;;;;;;4888643;29;20037;-78
2022/08/03 13:43:36;;;;;;;1.30;0.80;;;50.00;39.30;;;;;;4890875;29;20061;-79
2022/08/03 13:46:02;;;;;;;2.97;0.95;;;50.40;40.00;;;;;;4888933;29;20073;-81
2022/08/03 13:48:28;;;;;;;2.60;0.73;;;51.20;39.30;;;;;;4890483;29;20064;-80
2022/08/03 13:51:00;;;;;;;1.73;0.90;;;51.60;38.90;;;;;;4858223;29;20025;-78
2022/08/03 13:53:32;;;;;;;2.30;0.70;;;51.80;38.40;;;;;;4887872;29;20036;-78
2022/08/03 13:55:58;;;;;;;3.92;1.02;;;52.70;38.10;;;;;;4908120;29;20038;-81
2022/08/03 13:58:23;;;;;;;2.05;0.73;;;52.20;38.00;;;;;;4908704;29;20340;-79
2022/08/03 14:00:49;;;;;;;1.48;0.70;;;52.60;38.20;;;;;;4913807;29;20092;-78
2022/08/03 14:03:15;;;;;;;1.63;0.80;;;52.80;37.50;;;;;;4926850;29;20086;-79
2022/08/03 14:05:47;;;;;;;4.53;0.70;;;52.70;37.70;;;;;;4910586;29;20203;-78
2022/08/03 14:08:18;;;;;;;1.50;0.90;;;53.00;37.40;;;;;;4910211;29;20230;-77
2022/08/03 14:10:48;;;;;;;2.05;0.90;;;51.70;37.60;;;;;;4895895;29;20056;-78
2022/08/03 14:13:19;;;;;;;1.55;0.85;;;52.30;37.80;;;;;;4914613;29;20099;-78
2022/08/03 14:15:50;;;;;;;2.85;1.00;;;53.20;37.70;;;;;;4909222;29;20055;-78
2022/08/03 14:19:14;;;;;;;3.08;0.88;;;53.30;37.20;;;;;;4927061;29;20043;-80
2022/08/03 14:21:44;;;;;;;1.45;0.80;;;53.70;37.20;;;;;;4925872;29;20126;-77
2022/08/03 14:24:49;;;;;;;1.67;0.90;;;54.10;36.90;;;;;;4894190;29;20055;-78
2022/08/03 14:27:16;;;;;;;2.72;1.10;;;52.80;37.10;;;;;;4834008;29;20035;-76
2022/08/03 14:29:41;;;;;;;;;;;51.90;37.20;;;;;;4895515;29;20039;-80
2022/08/03 14:35:58;;;;;;;3.13;0.90;;;52.60;37.50;;;;;;4831394;29;20102;-78
2022/08/03 14:39:04;;;;;;;2.90;0.75;;;53.20;37.00;;;;;;4832740;29;20122;-78
2022/08/03 14:41:36;;;;;;;2.33;0.90;;;52.70;37.00;;;;;;4817091;29;20030;-78
2022/08/03 14:44:01;;;;;;;2.08;0.80;;;53.30;37.00;;;;;;4816383;29;20126;-80
2022/08/03 14:46:28;;;;;;;1.92;0.60;;;53.50;37.00;;;;;;4864457;29;20048;-77
2022/08/03 14:48:53;;;;;;;1.45;0.80;;;52.70;37.90;;;;;;4926650;29;20079;-79
2022/08/03 14:51:22;;;;;;;1.50;0.80;;;52.70;37.50;;;;;;4926281;29;20382;-77
2022/08/03 14:53:51;;;;;;;3.15;0.80;;;52.70;37.00;;;;;;4905195;29;20048;-78
2022/08/03 14:56:19;;;;;;;1.95;0.80;;;53.00;37.00;;;;;;4925328;29;20020;-79
2022/08/03 14:58:46;;;;;;;2.13;0.90;;;52.40;36.90;;;;;;4926610;29;20099;-78
2022/08/03 15:01:26;;;;;;;;;;;51.80;37.40;;;;;;4923885;29;20040;-78
2022/08/03 15:03:55;;;;;;;1.38;0.80;;;52.80;37.20;;;;;;4889845;29;19912;-77
2022/08/03 15:06:24;;;;;;;1.50;1.00;;;52.70;36.40;;;;;;4906939;29;20099;-79
2022/08/03 15:08:51;;;;;;;1.90;0.88;;;52.70;36.50;;;;;;4891213;29;20025;-80
2022/08/03 15:11:16;;;;;;;1.70;1.00;;;53.50;36.30;;;;;;4889142;29;20075;-80
2022/08/03 15:13:42;;;;;;;2.45;0.98;;;53.20;36.20;;;;;;4888402;29;20037;-75
2022/08/03 15:16:17;;;;;;;1.52;1.00;;;53.30;36.30;;;;;;4891208;29;20044;-79
2022/08/03 15:18:42;;;;;;;1.15;0.88;;;54.30;36.40;;;;;;4872208;29;20037;-78
2022/08/03 15:21:14;;;;;;;3.17;0.98;;;54.40;36.00;;;;;;4888380;29;20067;-78
2022/08/03 15:23:49;;;;;;;2.33;1.02;;;55.50;35.70;;;;;;4888741;29;20065;-77
2022/08/03 15:26:15;;;;;;;1.92;1.10;;;55.70;35.80;;;;;;4888150;29;20069;-80
2022/08/03 15:28:40;;;;;;;;;;;55.60;35.60;;;;;;4873153;29;20048;-79
2022/08/03 15:31:06;;;;;;;;;;;55.00;35.20;;;;;;4882249;29;19919;-79
2022/08/03 15:33:58;;;;;;;3.20;1.10;;;54.30;35.30;;;;;;4877245;29;20211;-79
2022/08/03 15:36:23;;;;;;;;;;;55.90;35.50;;;;;;4890072;29;20065;-79
2022/08/03 15:39:01;;;;;;;2.30;0.93;;;55.20;35.00;;;;;;4897436;29;20196;-79
2022/08/03 15:41:27;;;;;;;1.50;1.08;;;55.70;35.10;;;;;;4910093;29;20041;-79
2022/08/03 15:43:53;;;;;;;;;;;56.10;34.70;;;;;;4877991;29;20088;-79
2022/08/03 15:46:19;;;;;;;3.38;3.08;;;55.20;34.70;;;;;;4876484;29;19911;-80
2022/08/03 15:48:45;;;;;;;;;;;55.30;35.10;;;;;;4910608;29;20043;-78
2022/08/03 15:51:11;;;;;;;2.70;1.25;;;54.80;34.80;;;;;;4909367;29;20130;-80
2022/08/03 15:53:37;;;;;;;;;;;54.20;34.90;;;;;;4910099;29;20027;-80
2022/08/03 15:56:11;;;;;;;4.07;1.00;;;53.80;35.20;;;;;;4892684;29;19915;-80
2022/08/03 15:58:43;;;;;;;0.95;0.70;;;53.00;35.10;;;;;;4889990;29;20033;-79
2022/08/03 16:01:10;;;;;;;1.67;1.00;;;52.70;35.80;;;;;;4893415;29;20041;-78
2022/08/03 16:03:39;;;;;;;1.00;0.70;;;52.60;35.30;;;;;;4892542;29;20055;-81
2022/08/03 16:06:39;;;;;;;1.45;0.82;;;52.30;35.20;;;;;;4892460;29;20079;-80
2022/08/03 16:09:47;;;;;;;0.80;0.60;;;51.90;35.20;;;;;;4846785;29;20100;-79
2022/08/03 16:12:15;;;;;;;2.00;0.77;;;52.30;35.80;;;;;;4892451;29;20028;-82
2022/08/03 16:15:09;;;;;;;1.50;0.90;;;52.20;35.80;;;;;;4877184;29;20024;-79
2022/08/03 16:18:29;;;;;;;1.40;0.90;;;53.10;36.20;;;;;;4862601;29;20049;-80
2022/08/03 16:21:06;;;;;;;2.78;1.30;;;53.40;34.90;;;;;;4872400;29;20076;-81
2022/08/03 16:23:53;;;;;;;2.20;1.00;;;52.90;35.20;;;;;;4873746;29;20064;-80
2022/08/03 16:26:22;;;;;;;1.17;0.63;;;53.40;35.10;;;;;;4888029;29;20381;-79
2022/08/03 16:28:48;;;;;;;1.92;0.90;;;51.80;35.30;;;;;;4888533;29;20041;-80
2022/08/03 16:31:17;;;;;;;1.90;0.70;;;51.90;35.40;;;;;;4872242;29;20149;-79
2022/08/03 16:33:45;;;;;;;1.17;0.80;;;50.90;35.90;;;;;;4883972;29;20106;-78
2022/08/03 16:36:11;;;;;;;1.48;0.60;;;50.50;36.20;;;;;;4879344;29;20036;-80
2022/08/03 16:38:37;;;;;;;1.10;0.73;;;49.80;36.70;;;;;;4890278;29;20040;-78
2022/08/03 16:41:30;;;;;;;1.35;0.80;;;50.00;37.20;;;;;;4872993;29;20462;-78
2022/08/03 16:44:08;;;;;;;2.05;0.73;;;50.70;36.40;;;;;;4887896;29;20037;-76
2022/08/03 16:46:41;;;;;;;1.45;0.68;;;50.10;37.10;;;;;;4889565;29;20044;-77
2022/08/03 16:49:32;;;;;;;3.53;0.93;;;49.70;37.70;;;;;;4853694;29;20122;-78
2022/08/03 16:52:01;;;;;;;2.10;0.90;;;49.40;37.30;;;;;;4889301;29;20033;-79
2022/08/03 16:57:16;;;;;;;2.83;0.80;;;47.10;37.60;;;;;;4876380;29;20065;-78
2022/08/03 17:00:13;;;;;;;2.10;0.77;;;45.40;38.70;;;;;;4874232;29;20120;-79
2022/08/03 17:02:41;;;;;;;2.40;0.93;;;43.50;40.50;;;;;;4887804;29;20068;-77
2022/08/03 17:05:07;;;;;;;4.18;1.95;;;42.40;41.40;;;;;;4889340;29;20270;-77
2022/08/03 17:07:33;;;;;;;3.33;1.15;;;41.40;42.30;;;;;;4889533;29;20024;-76
2022/08/03 17:10:01;;;;;;;3.53;0.90;;;40.60;42.90;;;;;;4888992;29;20041;-77
2022/08/03 17:12:26;;;;;;;;;;;39.50;43.20;;;;;;4889321;29;20025;-74
2022/08/03 17:14:53;;;;;;;2.53;1.00;;;39.00;44.30;;;;;;4888993;29;19930;-73
2022/08/03 17:17:28;;;;;;;2.45;1.02;;;38.60;44.70;;;;;;4873128;29;20052;-75
2022/08/03 17:19:56;;;;;;;2.05;1.23;;;38.90;44.70;;;;;;4882958;29;20329;-75
2022/08/03 17:22:26;;;;;;;2.05;1.00;;;39.30;44.20;;;;;;4887160;29;20021;-74
2022/08/03 17:24:53;;;;;;;2.35;0.95;;;39.20;44.30;;;;;;4889792;29;20255;-73
2022/08/03 17:27:28;;;;;;;2.40;1.15;;;38.70;44.60;;;;;;4889533;29;20053;-75
2022/08/03 17:30:09;;;;;;;2.38;0.93;;;38.20;44.70;;;;;;4903725;29;20034;-74
2022/08/03 17:32:38;;;;;;;2.03;1.00;;;37.50;45.00;;;;;;4892118;29;20231;-74
2022/08/03 17:35:08;;;;;;;2.10;0.82;;;37.30;45.50;;;;;;4908422;29;20060;-74
2022/08/03 17:37:34;;;;;;;2.30;1.20;;;37.30;45.70;;;;;;4880783;29;20346;-75
2022/08/03 17:39:59;;;;;;;1.98;1.10;;;37.40;45.90;;;;;;4890925;29;20028;-75
2022/08/03 17:42:26;;;;;;;2.78;1.20;;;38.30;45.40;;;;;;4902480;29;20056;-74
2022/08/03 17:44:54;;;;;;;2.30;1.30;;;39.80;44.20;;;;;;4900062;29;20231;-75
2022/08/03 17:47:20;;;;;;;1.55;0.90;;;41.10;43.00;;;;;;4888746;29;20164;-74
2022/08/03 17:49:46;;;;;;;1.83;1.00;;;41.60;41.90;;;;;;4889617;29;20086;-74
2022/08/03 17:52:26;;;;;;;1.52;1.00;;;42.20;41.50;;;;;;4889004;29;20029;-74
2022/08/03 17:55:07;;;;;;;2.83;1.00;;;42.60;41.10;;;;;;4888785;29;20044;-74
2022/08/03 17:57:38;;;;;;;2.90;0.95;;;42.80;41.10;;;;;;4889498;29;20049;-74
2022/08/03 18:03:18;;;;;;;2.08;1.00;;;43.10;41.30;;;;;;4891030;29;20353;-77
2022/08/03 18:05:55;;;;;;;2.58;1.00;;;42.50;40.90;;;;;;4907833;29;20067;-76
2022/08/03 18:08:28;;;;;;;2.40;1.20;;;40.80;42.50;;;;;;4872510;29;20043;-76
2022/08/03 18:11:20;;;;;;;2.50;1.30;;;39.50;43.90;;;;;;4872680;29;20028;-75
2022/08/03 18:14:05;;;;;;;2.67;1.10;;;38.50;44.80;;;;;;4889356;29;20044;-75
2022/08/03 18:16:43;;;;;;;2.17;1.15;;;37.60;46.00;;;;;;4883492;29;20119;-75
2022/08/03 18:19:09;;;;;;;1.77;1.08;;;36.80;47.10;;;;;;4879426;29;20128;-76
2022/08/03 18:21:36;;;;;;;2.85;1.20;;;36.30;47.50;;;;;;4888851;29;20037;-75
2022/08/03 18:24:03;;;;;;;3.13;1.40;;;35.80;48.30;;;;;;4889198;29;20040;-75
2022/08/03 18:26:29;;;;;;;2.42;1.27;;;35.60;48.70;;;;;;4888524;29;20283;-74
2022/08/03 18:28:59;;;;;;;1.92;1.23;;;35.20;48.90;;;;;;4885990;29;20024;-75
2022/08/03 18:31:26;;;;;;;2.05;1.25;;;35.00;49.70;;;;;;4883622;29;20055;-76
2022/08/03 18:33:54;;;;;;;2.22;1.20;;;34.70;50.00;;;;;;4872120;29;20067;-75
2022/08/03 18:36:20;;;;;;;2.58;1.30;;;34.50;50.30;;;;;;4888298;29;20041;-75